sensor_id;sensor_type;location;lat;lon;timestamp;P1;durP1;ratioP1;P2;durP2;ratioP2
17844;SDS011;9047;53.486;10.218;2023-07-30T00:02:04;11.40;;;9.68;;
17844;SDS011;9047;53.486;10.218;2023-07-30T00:04:32;14.45;;;10.35;;
17844;SDS011;9047;53.486;10.218;2023-07-30T00:07:01;13.15;;;9.98;;
17844;SDS011;9047;53.486;10.218;2023-07-30T00:09:28;13.80;;;10.35;;
17844;SDS011;9047;53.486;10.218;2023-07-30T00:11:55;13.07;;;9.98;;
17844;SDS011;9047;53.486;10.218;2023-07-30T00:14:21;11.48;;;9.70;;
17844;SDS011;9047;53.486;10.218;2023-07-30T00:16:48;13.52;;;9.38;;
17844;SDS011;9047;53.486;10.218;2023-07-30T00:19:15;12.70;;;10.18;;
17844;SDS011;9047;53.486;10.218;2023-07-30T00:21:43;10.18;;;8.35;;
17844;SDS011;9047;53.486;10.218;2023-07-30T00:24:11;17.65;;;11.55;;
17844;SDS011;9047;53.486;10.218;2023-07-30T00:26:38;21.23;;;12.57;;
17844;SDS011;9047;53.486;10.218;2023-07-30T00:29:05;13.32;;;9.45;;
17844;SDS011;9047;53.486;10.218;2023-07-30T00:31:31;21.23;;;12.88;;
17844;SDS011;9047;53.486;10.218;2023-07-30T00:33:58;22.23;;;13.63;;
17844;SDS011;9047;53.486;10.218;2023-07-30T00:36:25;25.38;;;14.00;;
17844;SDS011;9047;53.486;10.218;2023-07-30T00:38:53;26.38;;;13.93;;
17844;SDS011;9047;53.486;10.218;2023-07-30T00:41:20;35.03;;;16.75;;
17844;SDS011;9047;53.486;10.218;2023-07-30T00:43:46;34.38;;;16.20;;
17844;SDS011;9047;53.486;10.218;2023-07-30T00:46:13;32.15;;;14.60;;
17844;SDS011;9047;53.486;10.218;2023-07-30T00:48:40;32.97;;;14.65;;
17844;SDS011;9047;53.486;10.218;2023-07-30T00:51:07;28.15;;;15.07;;
17844;SDS011;9047;53.486;10.218;2023-07-30T00:53:38;36.47;;;17.00;;
17844;SDS011;9047;53.486;10.218;2023-07-30T00:56:06;36.30;;;17.90;;
17844;SDS011;9047;53.486;10.218;2023-07-30T00:58:33;48.47;;;19.33;;
17844;SDS011;9047;53.486;10.218;2023-07-30T01:01:01;26.42;;;14.82;;
17844;SDS011;9047;53.486;10.218;2023-07-30T01:03:28;35.13;;;16.95;;
17844;SDS011;9047;53.486;10.218;2023-07-30T01:05:54;34.15;;;17.17;;
17844;SDS011;9047;53.486;10.218;2023-07-30T01:08:22;37.60;;;16.20;;
17844;SDS011;9047;53.486;10.218;2023-07-30T01:10:50;31.13;;;15.40;;
17844;SDS011;9047;53.486;10.218;2023-07-30T01:13:19;38.42;;;17.75;;
17844;SDS011;9047;53.486;10.218;2023-07-30T01:15:46;41.63;;;17.58;;
17844;SDS011;9047;53.486;10.218;2023-07-30T01:18:13;41.80;;;17.23;;
17844;SDS011;9047;53.486;10.218;2023-07-30T01:24:05;34.33;;;16.25;;
17844;SDS011;9047;53.486;10.218;2023-07-30T01:26:32;37.97;;;16.80;;
17844;SDS011;9047;53.486;10.218;2023-07-30T01:29:06;28.55;;;14.00;;
17844;SDS011;9047;53.486;10.218;2023-07-30T01:31:36;29.95;;;14.68;;
17844;SDS011;9047;53.486;10.218;2023-07-30T01:34:06;25.83;;;14.45;;
17844;SDS011;9047;53.486;10.218;2023-07-30T01:36:35;26.15;;;13.85;;
17844;SDS011;9047;53.486;10.218;2023-07-30T01:39:06;34.28;;;16.90;;
17844;SDS011;9047;53.486;10.218;2023-07-30T01:41:35;21.02;;;12.80;;
17844;SDS011;9047;53.486;10.218;2023-07-30T01:44:02;41.85;;;18.80;;
17844;SDS011;9047;53.486;10.218;2023-07-30T01:46:29;24.77;;;14.32;;
17844;SDS011;9047;53.486;10.218;2023-07-30T01:48:56;26.02;;;14.25;;
17844;SDS011;9047;53.486;10.218;2023-07-30T01:51:24;19.63;;;13.60;;
17844;SDS011;9047;53.486;10.218;2023-07-30T01:53:50;21.30;;;13.45;;
17844;SDS011;9047;53.486;10.218;2023-07-30T01:56:18;28.75;;;14.60;;
17844;SDS011;9047;53.486;10.218;2023-07-30T01:58:45;28.55;;;15.18;;
17844;SDS011;9047;53.486;10.218;2023-07-30T02:01:12;23.65;;;13.52;;
17844;SDS011;9047;53.486;10.218;2023-07-30T02:03:39;35.28;;;17.10;;
17844;SDS011;9047;53.486;10.218;2023-07-30T02:06:06;27.40;;;14.85;;
17844;SDS011;9047;53.486;10.218;2023-07-30T02:08:33;28.58;;;15.13;;
17844;SDS011;9047;53.486;10.218;2023-07-30T02:11:00;26.48;;;14.68;;
17844;SDS011;9047;53.486;10.218;2023-07-30T02:13:28;29.55;;;14.95;;
17844;SDS011;9047;53.486;10.218;2023-07-30T02:15:55;27.73;;;14.88;;
17844;SDS011;9047;53.486;10.218;2023-07-30T02:18:22;29.75;;;16.30;;
17844;SDS011;9047;53.486;10.218;2023-07-30T02:20:49;35.85;;;16.50;;
17844;SDS011;9047;53.486;10.218;2023-07-30T02:23:16;21.35;;;13.77;;
17844;SDS011;9047;53.486;10.218;2023-07-30T02:25:43;32.63;;;16.77;;
17844;SDS011;9047;53.486;10.218;2023-07-30T02:28:10;31.92;;;16.30;;
17844;SDS011;9047;53.486;10.218;2023-07-30T02:30:38;23.27;;;13.68;;
17844;SDS011;9047;53.486;10.218;2023-07-30T02:33:05;24.13;;;13.15;;
17844;SDS011;9047;53.486;10.218;2023-07-30T02:35:32;22.50;;;13.70;;
17844;SDS011;9047;53.486;10.218;2023-07-30T02:37:59;22.67;;;14.45;;
17844;SDS011;9047;53.486;10.218;2023-07-30T02:40:26;26.00;;;14.50;;
17844;SDS011;9047;53.486;10.218;2023-07-30T02:42:53;27.23;;;14.52;;
17844;SDS011;9047;53.486;10.218;2023-07-30T02:45:20;25.88;;;14.52;;
17844;SDS011;9047;53.486;10.218;2023-07-30T02:47:48;27.42;;;15.40;;
17844;SDS011;9047;53.486;10.218;2023-07-30T02:50:15;34.50;;;16.73;;
17844;SDS011;9047;53.486;10.218;2023-07-30T02:52:42;29.52;;;16.40;;
17844;SDS011;9047;53.486;10.218;2023-07-30T02:55:09;26.75;;;14.82;;
17844;SDS011;9047;53.486;10.218;2023-07-30T02:57:36;26.73;;;14.77;;
17844;SDS011;9047;53.486;10.218;2023-07-30T03:00:03;32.42;;;16.38;;
17844;SDS011;9047;53.486;10.218;2023-07-30T03:02:31;24.02;;;13.65;;
17844;SDS011;9047;53.486;10.218;2023-07-30T03:04:59;35.35;;;16.58;;
17844;SDS011;9047;53.486;10.218;2023-07-30T03:07:26;32.67;;;15.75;;
17844;SDS011;9047;53.486;10.218;2023-07-30T03:09:54;29.42;;;15.48;;
17844;SDS011;9047;53.486;10.218;2023-07-30T03:12:20;31.67;;;16.58;;
17844;SDS011;9047;53.486;10.218;2023-07-30T03:14:48;31.20;;;15.90;;
17844;SDS011;9047;53.486;10.218;2023-07-30T03:17:15;32.83;;;16.88;;
17844;SDS011;9047;53.486;10.218;2023-07-30T03:19:42;31.30;;;17.00;;
17844;SDS011;9047;53.486;10.218;2023-07-30T03:22:11;30.63;;;15.82;;
17844;SDS011;9047;53.486;10.218;2023-07-30T03:24:38;37.70;;;19.00;;
17844;SDS011;9047;53.486;10.218;2023-07-30T03:27:05;37.53;;;17.77;;
17844;SDS011;9047;53.486;10.218;2023-07-30T03:29:32;37.30;;;17.85;;
17844;SDS011;9047;53.486;10.218;2023-07-30T03:31:59;27.65;;;15.15;;
17844;SDS011;9047;53.486;10.218;2023-07-30T03:34:26;32.38;;;16.95;;
17844;SDS011;9047;53.486;10.218;2023-07-30T03:36:53;35.40;;;16.92;;
17844;SDS011;9047;53.486;10.218;2023-07-30T03:39:23;38.58;;;18.08;;
17844;SDS011;9047;53.486;10.218;2023-07-30T03:41:50;34.95;;;16.80;;
17844;SDS011;9047;53.486;10.218;2023-07-30T03:44:17;31.90;;;16.42;;
17844;SDS011;9047;53.486;10.218;2023-07-30T03:46:44;36.25;;;17.20;;
17844;SDS011;9047;53.486;10.218;2023-07-30T03:49:12;31.42;;;16.17;;
17844;SDS011;9047;53.486;10.218;2023-07-30T03:51:39;28.27;;;17.50;;
17844;SDS011;9047;53.486;10.218;2023-07-30T03:54:06;37.20;;;18.10;;
17844;SDS011;9047;53.486;10.218;2023-07-30T03:56:34;44.83;;;19.02;;
17844;SDS011;9047;53.486;10.218;2023-07-30T03:59:01;38.97;;;17.80;;
17844;SDS011;9047;53.486;10.218;2023-07-30T04:01:28;42.17;;;18.95;;
17844;SDS011;9047;53.486;10.218;2023-07-30T04:03:56;47.85;;;18.98;;
17844;SDS011;9047;53.486;10.218;2023-07-30T04:06:23;39.97;;;18.80;;
17844;SDS011;9047;53.486;10.218;2023-07-30T04:08:50;39.08;;;18.23;;
17844;SDS011;9047;53.486;10.218;2023-07-30T04:11:17;37.65;;;17.08;;
17844;SDS011;9047;53.486;10.218;2023-07-30T04:13:45;45.78;;;19.00;;
17844;SDS011;9047;53.486;10.218;2023-07-30T04:16:12;35.35;;;16.95;;
17844;SDS011;9047;53.486;10.218;2023-07-30T04:18:39;46.75;;;19.70;;
17844;SDS011;9047;53.486;10.218;2023-07-30T04:21:06;44.53;;;19.48;;
17844;SDS011;9047;53.486;10.218;2023-07-30T04:23:33;34.40;;;16.70;;
17844;SDS011;9047;53.486;10.218;2023-07-30T04:26:01;49.55;;;20.40;;
17844;SDS011;9047;53.486;10.218;2023-07-30T04:28:28;49.85;;;21.85;;
17844;SDS011;9047;53.486;10.218;2023-07-30T04:30:56;46.58;;;20.58;;
17844;SDS011;9047;53.486;10.218;2023-07-30T04:33:24;31.20;;;15.68;;
17844;SDS011;9047;53.486;10.218;2023-07-30T04:35:51;52.00;;;22.05;;
17844;SDS011;9047;53.486;10.218;2023-07-30T04:38:18;48.95;;;21.65;;
17844;SDS011;9047;53.486;10.218;2023-07-30T04:40:45;40.90;;;17.80;;
17844;SDS011;9047;53.486;10.218;2023-07-30T04:43:12;44.70;;;19.90;;
17844;SDS011;9047;53.486;10.218;2023-07-30T04:45:39;43.92;;;19.55;;
17844;SDS011;9047;53.486;10.218;2023-07-30T04:48:08;50.72;;;21.27;;
17844;SDS011;9047;53.486;10.218;2023-07-30T04:50:35;26.65;;;15.10;;
17844;SDS011;9047;53.486;10.218;2023-07-30T04:53:03;36.42;;;17.52;;
17844;SDS011;9047;53.486;10.218;2023-07-30T04:55:30;39.13;;;17.48;;
17844;SDS011;9047;53.486;10.218;2023-07-30T04:57:57;39.05;;;17.83;;
17844;SDS011;9047;53.486;10.218;2023-07-30T05:00:24;42.50;;;19.20;;
17844;SDS011;9047;53.486;10.218;2023-07-30T05:02:51;47.65;;;18.60;;
17844;SDS011;9047;53.486;10.218;2023-07-30T05:05:20;64.90;;;22.63;;
17844;SDS011;9047;53.486;10.218;2023-07-30T05:07:47;46.58;;;20.08;;
17844;SDS011;9047;53.486;10.218;2023-07-30T05:10:14;35.65;;;17.08;;
17844;SDS011;9047;53.486;10.218;2023-07-30T05:12:41;46.40;;;19.17;;
17844;SDS011;9047;53.486;10.218;2023-07-30T05:15:08;37.13;;;18.35;;
17844;SDS011;9047;53.486;10.218;2023-07-30T05:17:35;35.78;;;18.90;;
17844;SDS011;9047;53.486;10.218;2023-07-30T05:20:02;42.33;;;18.42;;
17844;SDS011;9047;53.486;10.218;2023-07-30T05:22:32;32.22;;;16.63;;
17844;SDS011;9047;53.486;10.218;2023-07-30T05:25:00;39.03;;;17.60;;
17844;SDS011;9047;53.486;10.218;2023-07-30T05:27:27;45.78;;;17.92;;
17844;SDS011;9047;53.486;10.218;2023-07-30T05:29:56;25.33;;;13.70;;
17844;SDS011;9047;53.486;10.218;2023-07-30T05:32:23;26.90;;;14.65;;
17844;SDS011;9047;53.486;10.218;2023-07-30T05:34:50;32.75;;;16.63;;
17844;SDS011;9047;53.486;10.218;2023-07-30T05:37:17;33.30;;;15.70;;
17844;SDS011;9047;53.486;10.218;2023-07-30T05:39:45;26.25;;;14.60;;
17844;SDS011;9047;53.486;10.218;2023-07-30T05:42:12;27.30;;;14.00;;
17844;SDS011;9047;53.486;10.218;2023-07-30T05:44:39;36.45;;;15.27;;
17844;SDS011;9047;53.486;10.218;2023-07-30T05:47:06;29.65;;;14.35;;
17844;SDS011;9047;53.486;10.218;2023-07-30T05:49:33;32.95;;;13.82;;
17844;SDS011;9047;53.486;10.218;2023-07-30T05:52:00;28.33;;;12.48;;
17844;SDS011;9047;53.486;10.218;2023-07-30T05:54:27;25.58;;;13.32;;
17844;SDS011;9047;53.486;10.218;2023-07-30T05:56:55;27.02;;;11.90;;
17844;SDS011;9047;53.486;10.218;2023-07-30T05:59:22;21.27;;;10.77;;
17844;SDS011;9047;53.486;10.218;2023-07-30T06:01:49;25.55;;;11.40;;
17844;SDS011;9047;53.486;10.218;2023-07-30T06:04:16;19.05;;;10.80;;
17844;SDS011;9047;53.486;10.218;2023-07-30T06:06:43;16.40;;;10.63;;
17844;SDS011;9047;53.486;10.218;2023-07-30T06:09:11;13.85;;;9.07;;
17844;SDS011;9047;53.486;10.218;2023-07-30T06:11:38;18.52;;;9.90;;
